Time;durP1;ratioP1;P1;durP2;ratioP2;P2;SDS_P1;SDS_P2;PMS_P1;PMS_P2;Temp;Humidity;BMP_temperature;BMP_pressure;BME280_temperature;BME280_humidity;BME280_pressure;Samples;Min_cycle;Max_cycle;Signal;HPM_P1;HPM_P2
2022/04/22 18:56:49;;;;;;;33.00;29.60;;;;;;;7.80;100.00;98378.81;5124899;27;20630;-77
2022/04/22 18:59:18;;;;;;;33.97;30.47;;;;;;;7.78;100.00;98370.25;5107513;28;20180;-76
2022/04/22 19:01:45;;;;;;;33.20;29.70;;;;;;;7.81;100.00;98378.59;5107677;28;20595;-76
2022/04/22 19:04:13;;;;;;;32.70;29.40;;;;;;;7.82;100.00;98376.75;5107218;28;20195;-78
2022/04/22 19:06:40;;;;;;;31.47;28.27;;;;;;;7.80;100.00;98376.16;5090507;28;20186;-77
2022/04/22 19:09:07;;;;;;;31.83;28.67;;;;;;;7.78;100.00;98376.41;5108236;28;20218;-78
2022/04/22 19:11:34;;;;;;;32.13;28.97;;;;;;;7.79;100.00;98375.34;5108609;28;20275;-78
2022/04/22 19:14:01;;;;;;;31.57;28.37;;;;;;;7.80;100.00;98376.16;5109495;28;20192;-78
2022/04/22 19:16:27;;;;;;;32.00;28.70;;;;;;;7.79;100.00;98380.69;5090182;28;20259;-77
2022/04/22 19:18:54;;;;;;;32.07;28.87;;;;;;;7.80;100.00;98376.97;5107002;28;20195;-77
2022/04/22 19:21:21;;;;;;;31.00;27.90;;;;;;;7.79;100.00;98378.00;5107951;28;20198;-77
2022/04/22 19:23:48;;;;;;;31.77;28.63;;;;;;;7.78;100.00;98376.41;5108896;28;20192;-77
2022/04/22 19:26:15;;;;;;;31.83;28.73;;;;;;;7.82;100.00;98377.56;5107192;28;20225;-77
2022/04/22 19:28:43;;;;;;;30.60;27.53;;;;;;;7.81;100.00;98383.13;5090031;28;20482;-78
2022/04/22 19:31:13;;;;;;;31.30;28.10;;;;;;;7.82;100.00;98382.09;5107905;28;20191;-77
2022/04/22 19:33:40;;;;;;;30.17;27.10;;;;;;;7.83;100.00;98384.53;5088116;28;20194;-77
2022/04/22 19:41:38;;;;;;;29.27;26.40;;;;;;;7.79;100.00;98372.69;5101907;28;20229;-77
2022/04/22 19:44:05;;;;;;;28.23;25.53;;;;;;;7.85;100.00;98376.28;5108718;28;20184;-77
2022/04/22 19:46:32;;;;;;;27.67;25.00;;;;;;;7.81;100.00;98365.28;5108245;28;20238;-77
2022/04/22 19:48:59;;;;;;;27.97;25.27;;;;;;;7.81;100.00;98370.59;5107181;28;20279;-78
2022/04/22 19:51:26;;;;;;;26.90;24.30;;;;;;;7.81;100.00;98372.47;5107207;28;20421;-78
2022/04/22 19:53:53;;;;;;;26.90;24.20;;;;;;;7.80;100.00;98370.81;5107568;28;20208;-77
2022/04/22 19:56:20;;;;;;;27.63;25.03;;;;;;;7.78;100.00;98372.94;5089961;28;20225;-76
2022/04/22 19:58:49;;;;;;;27.63;24.93;;;;;;;7.75;100.00;98366.19;5106828;28;20183;-77
2022/04/22 20:01:16;;;;;;;25.90;23.27;;;;;;;7.78;100.00;98371.09;5107750;28;20257;-77
2022/04/22 20:03:43;;;;;;;27.07;24.57;;;;;;;7.77;100.00;98369.44;5089592;28;20558;-77
2022/04/22 20:06:10;;;;;;;26.87;24.27;;;;;;;7.80;100.00;98376.16;5104899;28;20251;-78
2022/04/22 20:08:36;;;;;;;26.67;24.10;;;;;;;7.79;100.00;98379.91;5094442;28;20226;-78
2022/04/22 20:11:03;;;;;;;26.67;24.07;;;;;;;7.80;100.00;98376.97;5094881;28;20215;-77
2022/04/22 20:13:30;;;;;;;26.63;24.03;;;;;;;7.79;100.00;98375.34;5076691;28;20208;-77
2022/04/22 20:15:57;;;;;;;27.27;24.63;;;;;;;7.79;100.00;98378.00;5094038;28;20200;-77
2022/04/22 20:18:24;;;;;;;26.80;24.23;;;;;;;7.79;100.00;98374.56;5092778;28;20189;-77
2022/04/22 20:20:57;;;;;;;27.47;24.90;;;;;;;7.79;100.00;98379.91;5093122;28;20216;-77
2022/04/22 20:23:24;;;;;;;28.20;25.33;;;;;;;7.79;100.00;98380.69;5094210;28;20255;-77
2022/04/22 20:25:52;;;;;;;27.37;24.57;;;;;;;7.79;100.00;98380.69;5094362;28;20259;-76
2022/04/22 20:28:19;;;;;;;27.07;24.47;;;;;;;7.79;100.00;98375.34;5093149;28;20275;-77
2022/04/22 20:30:46;;;;;;;27.67;25.03;;;;;;;7.78;100.00;98381.75;5092692;28;20223;-77
2022/04/22 20:33:13;;;;;;;27.73;25.07;;;;;;;7.79;100.00;98378.00;5100495;28;20235;-77
2022/04/22 20:41:12;;;;;;;27.83;25.30;;;;;;;7.79;100.00;98383.34;5108257;28;20542;-77
2022/04/22 20:43:39;;;;;;;27.57;24.97;;;;;;;7.77;100.00;98374.78;5107107;28;20227;-76
2022/04/22 20:46:06;;;;;;;28.00;25.40;;;;;;;7.79;100.00;98378.00;5076125;28;20257;-77
2022/04/22 20:48:36;;;;;;;28.23;25.43;;;;;;;7.78;100.00;98379.06;5093860;28;20188;-77
2022/04/22 20:51:02;;;;;;;28.27;25.57;;;;;;;7.76;100.00;98370.47;5093169;28;20479;-77
2022/04/22 20:53:47;;;;;;;28.27;25.37;;;;;;;7.75;100.00;98374.19;5092990;28;20206;-79
2022/04/22 20:56:16;;;;;;;26.67;24.17;;;;;;;7.77;100.00;98377.44;5092894;28;20309;-78
2022/04/22 20:58:44;;;;;;;26.83;24.30;;;;;;;7.79;100.00;98379.91;5092972;28;20472;-76
2022/04/22 21:01:12;;;;;;;27.47;24.73;;;;;;;7.78;100.00;98378.25;5093191;28;20208;-77
2022/04/22 21:03:41;;;;;;;27.37;24.77;;;;;;;7.77;100.00;98376.63;5075963;28;20192;-79
2022/04/22 21:06:09;;;;;;;26.47;23.97;;;;;;;7.77;100.00;98377.44;5092625;28;20255;-78
2022/04/22 21:08:37;;;;;;;27.70;24.97;;;;;;;7.75;100.00;98371.53;5092974;28;20558;-77
2022/04/22 21:11:04;;;;;;;27.43;24.77;;;;;;;7.74;100.00;98383.25;5092557;28;20614;-77
2022/04/22 21:13:30;;;;;;;28.57;25.77;;;;;;;7.75;100.00;98381.38;5092443;28;20198;-78
2022/04/22 21:16:07;;;;;;;27.60;24.97;;;;;;;7.74;100.00;98383.25;5077127;28;20297;-76
2022/04/22 21:18:35;;;;;;;28.50;25.63;;;;;;;7.73;100.00;98384.28;5092468;28;20234;-77
2022/04/22 21:21:02;;;;;;;28.07;25.30;;;;;;;7.76;100.00;98383.81;5092299;28;20184;-77
2022/04/22 21:23:29;;;;;;;27.57;24.77;;;;;;;7.75;100.00;98382.19;5092304;28;20270;-77
2022/04/22 21:25:56;;;;;;;28.13;25.37;;;;;;;7.76;100.00;98388.34;5074785;28;20717;-77
2022/04/22 21:28:23;;;;;;;27.43;24.73;;;;;;;7.75;100.00;98390.19;5092673;28;20210;-77
2022/04/22 21:30:54;;;;;;;28.63;26.00;;;;;;;7.76;100.00;98388.34;5093468;28;20177;-77
2022/04/22 21:33:21;;;;;;;28.37;25.63;;;;;;;7.76;100.00;98380.34;5093494;28;20184;-77
2022/04/22 21:35:48;;;;;;;27.67;25.03;;;;;;;7.74;100.00;98385.91;5093198;28;20291;-77
2022/04/22 21:38:17;;;;;;;27.80;25.13;;;;;;;7.75;100.00;98384.84;5091800;28;20279;-77
2022/04/22 21:40:46;;;;;;;27.10;24.60;;;;;;;7.76;100.00;98383.81;5092703;28;20502;-77
2022/04/22 21:43:13;;;;;;;29.33;26.53;;;;;;;7.75;100.00;98386.69;5093194;28;20742;-77
2022/04/22 21:45:41;;;;;;;28.33;25.53;;;;;;;7.75;100.00;98384.03;5091206;28;20188;-76
2022/04/22 21:48:09;;;;;;;27.73;25.03;;;;;;;7.74;100.00;98375.25;5091443;28;20180;-77
2022/04/22 21:50:37;;;;;;;27.87;25.27;;;;;;;7.76;100.00;98385.66;5091142;28;20703;-77
2022/04/22 21:53:06;;;;;;;27.93;25.23;;;;;;;7.77;100.00;98381.97;5091661;28;20226;-77
2022/04/22 21:55:33;;;;;;;27.17;24.57;;;;;;;7.72;100.00;98381.84;5057957;28;20256;-77
2022/04/22 21:58:00;;;;;;;26.83;24.33;;;;;;;7.71;100.00;98377.53;5092516;28;20275;-78
2022/04/22 22:00:58;;;;;;;27.27;24.67;;;;;;;7.72;100.00;98382.66;5092516;28;20544;-77
2022/04/22 22:03:27;;;;;;;26.70;24.10;;;;;;;7.72;100.00;98379.19;5076679;28;20226;-76
2022/04/22 22:05:54;;;;;;;27.30;24.70;;;;;;;7.72;100.00;98382.66;5074525;28;20196;-78
2022/04/22 22:08:22;;;;;;;27.47;24.87;;;;;;;7.69;100.00;98375.13;5090972;28;20238;-77
2022/04/22 22:11:02;;;;;;;27.90;25.10;;;;;;;7.72;100.00;98373.84;5091552;28;20213;-78
2022/04/22 22:13:31;;;;;;;27.93;25.13;;;;;;;7.73;100.00;98368.28;5090916;28;20180;-77
2022/04/22 22:16:04;;;;;;;27.97;25.37;;;;;;;7.72;100.00;98369.34;5073937;28;20204;-78
2022/04/22 22:18:32;;;;;;;27.83;25.23;;;;;;;7.71;100.00;98365.03;5090713;28;20483;-77
2022/04/22 22:20:59;;;;;;;27.97;25.27;;;;;;;7.71;100.00;98370.38;5090810;28;20219;-77
2022/04/22 22:23:26;;;;;;;27.27;24.67;;;;;;;7.72;100.00;98365.84;5090798;28;20215;-77
2022/04/22 22:25:52;;;;;;;27.63;24.93;;;;;;;7.70;100.00;98371.41;5091718;28;20263;-76
2022/04/22 22:28:19;;;;;;;27.80;25.10;;;;;;;7.70;100.00;98363.41;5092090;28;20270;-77
2022/04/22 22:30:47;;;;;;;27.17;24.60;;;;;;;7.70;100.00;98366.06;5091762;28;20219;-79
2022/04/22 22:33:14;;;;;;;27.47;24.83;;;;;;;7.70;100.00;98362.63;5091108;28;20223;-78
2022/04/22 22:35:40;;;;;;;27.00;24.50;;;;;;;7.71;100.00;98367.69;5090428;28;20232;-78
2022/04/22 22:38:07;;;;;;;25.73;23.20;;;;;;;7.71;100.00;98375.69;5092257;28;20210;-78
2022/04/22 22:40:34;;;;;;;27.63;24.97;;;;;;;7.70;100.00;98371.41;5090264;28;20200;-77
2022/04/22 22:43:00;;;;;;;25.73;23.23;;;;;;;7.67;100.00;98363.88;5091721;28;20667;-78
2022/04/22 22:45:27;;;;;;;26.60;24.03;;;;;;;7.67;100.00;98363.88;5091588;28;20263;-78
2022/04/22 22:47:54;;;;;;;26.03;23.63;;;;;;;7.66;100.00;98359.59;5090748;28;20666;-76
2022/04/22 22:50:21;;;;;;;26.90;24.13;;;;;;;7.65;100.00;98352.63;5091503;28;20271;-76
2022/04/22 22:52:48;;;;;;;27.20;24.50;;;;;;;7.69;100.00;98358.31;5090473;28;20191;-78
2022/04/22 22:55:14;;;;;;;25.70;23.30;;;;;;;7.65;100.00;98360.63;5091355;28;20223;-77
2022/04/22 22:57:41;;;;;;;26.43;23.93;;;;;;;7.65;100.00;98357.94;5073237;28;20306;-77
2022/04/22 23:00:10;;;;;;;26.03;23.63;;;;;;;7.65;100.00;98357.94;5090707;28;20219;-77
2022/04/22 23:02:38;;;;;;;25.53;23.13;;;;;;;7.65;100.00;98365.94;5091351;28;20267;-77
2022/04/22 23:05:05;;;;;;;27.13;24.53;;;;;;;7.65;100.00;98351.84;5090204;28;20184;-77
2022/04/22 23:07:32;;;;;;;27.77;25.07;;;;;;;7.64;100.00;98356.34;5090052;28;20229;-76
2022/04/22 23:09:59;;;;;;;27.03;24.43;;;;;;;7.64;100.00;98358.19;5091805;28;20309;-78
2022/04/22 23:12:26;;;;;;;27.33;24.73;;;;;;;7.63;100.00;98354.72;5089967;28;20442;-77
2022/04/22 23:14:53;;;;;;;26.67;24.17;;;;;;;7.63;100.00;98360.06;5091661;28;20262;-77
2022/04/22 23:17:20;;;;;;;26.97;24.33;;;;;;;7.63;100.00;98349.41;5089979;28;20315;-77
2022/04/22 23:19:46;;;;;;;27.07;24.47;;;;;;;7.65;100.00;98352.63;5073242;28;20599;-77
2022/04/22 23:22:13;;;;;;;27.10;24.50;;;;;;;7.63;100.00;98353.91;5091210;28;20340;-77
2022/04/22 23:24:42;;;;;;;27.17;24.60;;;;;;;7.65;100.00;98351.84;5090047;28;20222;-76
2022/04/22 23:27:09;;;;;;;28.40;25.70;;;;;;;7.65;100.00;98349.94;5090457;28;20186;-77
2022/04/22 23:29:36;;;;;;;27.73;24.97;;;;;;;7.64;100.00;98345.69;5091453;28;20191;-77
2022/04/22 23:32:04;;;;;;;27.93;25.23;;;;;;;7.68;100.00;98346.84;5090307;28;20263;-79
2022/04/22 23:34:30;;;;;;;28.00;25.20;;;;;;;7.63;100.00;98341.41;5091312;28;20218;-76
2022/04/22 23:36:57;;;;;;;27.70;25.00;;;;;;;7.66;100.00;98345.44;5091396;28;20204;-77
2022/04/22 23:39:25;;;;;;;27.60;24.90;;;;;;;7.64;100.00;98337.69;5090884;28;20251;-77
2022/04/22 23:41:52;;;;;;;27.40;24.80;;;;;;;7.62;100.00;98339.75;5090698;28;20217;-77
2022/04/22 23:44:18;;;;;;;28.30;25.50;;;;;;;7.62;100.00;98347.75;5094913;28;20271;-77
2022/04/22 23:46:45;;;;;;;27.80;25.10;;;;;;;7.60;100.00;98339.19;5094518;28;20271;-77
2022/04/22 23:49:12;;;;;;;29.17;26.17;;;;;;;7.61;100.00;98345.31;5094988;28;20267;-77
2022/04/22 23:51:39;;;;;;;28.03;25.23;;;;;;;7.61;100.00;98340.00;5094609;28;20272;-77
2022/04/22 23:54:06;;;;;;;28.40;25.50;;;;;;;7.61;100.00;98340.81;5076661;28;20267;-77
2022/04/22 23:56:33;;;;;;;27.07;24.47;;;;;;;7.61;100.00;98342.66;5093036;28;20568;-76
2022/04/22 23:59:00;;;;;;;27.73;25.03;;;;;;;7.59;100.00;98334.91;5095217;28;20558;-77
